Time;durP1;ratioP1;P1;durP2;ratioP2;P2;SDS_P1;SDS_P2;PMS_P1;PMS_P2;Temp;Humidity;BMP_temperature;BMP_pressure;BME280_temperature;BME280_humidity;BME280_pressure;Samples;Min_cycle;Max_cycle;Signal;HPM_P1;HPM_P2
2023/06/27 00:01:39;;;;;;;26.15;10.88;;;589.00;2432.00;;;;;;5075470;28;20063;-70
2023/06/27 00:04:06;;;;;;;16.63;10.10;;;588.90;2432.00;;;;;;5081729;28;20021;-72
2023/06/27 00:06:31;;;;;;;16.63;10.18;;;588.80;2432.00;;;;;;5081116;28;20154;-72
2023/06/27 00:08:57;;;;;;;15.70;10.07;;;588.80;2432.00;;;;;;5082740;28;20115;-71
2023/06/27 00:11:23;;;;;;;19.80;8.77;;;588.80;2432.00;;;;;;5079683;28;20025;-70
2023/06/27 00:13:49;;;;;;;13.23;7.63;;;564.10;2432.00;;;;;;5073455;28;20028;-70
2023/06/27 00:16:17;;;;;;;13.18;7.35;;;564.10;2432.00;;;;;;5078941;28;20099;-74
2023/06/27 00:18:49;;;;;;;16.48;8.25;;;564.10;2432.00;;;;;;5080373;28;20035;-73
2023/06/27 00:21:15;;;;;;;13.85;7.70;;;588.80;2432.00;;;;;;5081230;28;20169;-72
2023/06/27 00:23:42;;;;;;;17.05;7.88;;;588.80;2432.00;;;;;;5081840;28;20024;-70
2023/06/27 00:26:08;;;;;;;12.75;6.28;;;564.10;2432.00;;;;;;5075432;28;20032;-71
2023/06/27 00:28:34;;;;;;;11.25;6.82;;;588.90;2432.00;;;;;;5080839;28;20391;-70
2023/06/27 00:31:00;;;;;;;11.13;6.50;;;588.80;2432.00;;;;;;5082164;28;20067;-70
2023/06/27 00:33:25;;;;;;;15.32;7.80;;;564.10;2432.00;;;;;;5075522;28;20082;-70
2023/06/27 00:35:51;;;;;;;11.02;6.65;;;564.10;2432.00;;;;;;5078737;28;20031;-72
2023/06/27 00:38:17;;;;;;;12.18;6.78;;;564.10;2432.00;;;;;;5080294;28;20032;-72
2023/06/27 00:40:43;;;;;;;12.57;7.55;;;564.00;2432.00;;;;;;5074439;28;20025;-79
2023/06/27 00:43:09;;;;;;;16.58;7.38;;;563.90;2432.00;;;;;;5077611;28;20036;-72
2023/06/27 00:45:34;;;;;;;12.88;7.22;;;563.90;2432.00;;;;;;5085106;28;20111;-72
2023/06/27 00:48:00;;;;;;;11.55;6.70;;;563.90;2432.00;;;;;;5072879;28;20081;-72
2023/06/27 00:50:27;;;;;;;16.00;7.60;;;564.00;2432.00;;;;;;5073541;28;20485;-72
2023/06/27 00:52:54;;;;;;;11.82;7.05;;;564.00;2432.00;;;;;;5073284;28;20017;-72
2023/06/27 00:55:21;;;;;;;14.70;7.38;;;563.90;2432.00;;;;;;5073053;28;20163;-71
2023/06/27 00:57:48;;;;;;;13.43;7.65;;;563.90;2432.00;;;;;;5073408;28;20025;-73
2023/06/27 01:00:15;;;;;;;16.35;7.82;;;563.80;2432.00;;;;;;5072988;28;20032;-72
2023/06/27 01:02:41;;;;;;;16.70;8.02;;;563.80;2432.00;;;;;;5073321;28;20028;-72
2023/06/27 01:05:08;;;;;;;12.63;7.03;;;563.90;2432.00;;;;;;5073078;28;20024;-72
2023/06/27 01:07:48;;;;;;;13.75;7.13;;;564.00;2432.00;;;;;;5072659;28;20055;-71
2023/06/27 01:10:26;;;;;;;10.95;6.30;;;564.00;2432.00;;;;;;5073264;28;20547;-82
2023/06/27 01:13:13;;;;;;;12.27;7.35;;;564.10;2432.00;;;;;;5072897;28;20389;-72
2023/06/27 01:15:40;;;;;;;12.63;6.43;;;564.10;2432.00;;;;;;5073108;28;20489;-75
2023/06/27 01:18:08;;;;;;;12.80;7.00;;;564.10;2432.00;;;;;;5073192;28;20033;-73
2023/06/27 01:20:34;;;;;;;11.82;6.68;;;564.10;2432.00;;;;;;5073200;28;20086;-73
2023/06/27 01:23:08;;;;;;;12.38;6.55;;;564.10;2432.00;;;;;;5073104;28;20035;-73
2023/06/27 01:25:37;;;;;;;13.93;6.35;;;564.10;2432.00;;;;;;5072725;28;20020;-72
2023/06/27 01:28:03;;;;;;;10.68;7.07;;;564.00;2432.00;;;;;;5072841;28;20570;-80
2023/06/27 01:30:33;;;;;;;11.50;6.82;;;564.00;2432.00;;;;;;5073024;28;20035;-72
2023/06/27 01:33:04;;;;;;;11.55;7.13;;;563.80;2432.00;;;;;;5072921;28;20032;-74
2023/06/27 01:35:39;;;;;;;12.00;6.22;;;563.80;2432.00;;;;;;5072983;28;20036;-72
2023/06/27 01:38:10;;;;;;;11.50;6.93;;;563.80;2432.00;;;;;;5072871;28;20486;-71
2023/06/27 01:40:39;;;;;;;10.93;6.72;;;563.80;2432.00;;;;;;5072854;28;20021;-73
2023/06/27 01:43:09;;;;;;;10.73;6.75;;;563.60;2432.00;;;;;;5072742;28;20020;-77
2023/06/27 01:45:37;;;;;;;15.65;7.35;;;563.60;2432.00;;;;;;5072791;28;20025;-76
2023/06/27 01:48:03;;;;;;;16.65;7.50;;;563.60;2432.00;;;;;;5072871;28;20032;-72
2023/06/27 01:50:29;;;;;;;13.00;7.38;;;563.50;2432.00;;;;;;5072813;28;20127;-72
2023/06/27 01:52:56;;;;;;;13.13;6.72;;;563.50;2432.00;;;;;;5072362;28;20028;-74
2023/06/27 01:55:22;;;;;;;10.57;6.57;;;563.60;2432.00;;;;;;5071738;28;20517;-71
2023/06/27 01:57:49;;;;;;;12.50;7.60;;;563.70;2432.00;;;;;;5072367;28;20020;-72
2023/06/27 02:00:15;;;;;;;12.45;6.53;;;563.60;2432.00;;;;;;5071800;28;20017;-72
2023/06/27 02:02:41;;;;;;;11.48;7.03;;;563.60;2432.00;;;;;;5072342;28;20021;-73
2023/06/27 02:05:07;;;;;;;11.80;6.63;;;563.60;2432.00;;;;;;5071985;28;20475;-79
2023/06/27 02:07:33;;;;;;;19.20;7.60;;;563.60;2432.00;;;;;;5071896;28;20048;-79
2023/06/27 02:09:59;;;;;;;12.90;7.68;;;563.60;2432.00;;;;;;5071864;28;20032;-74
2023/06/27 02:12:24;;;;;;;13.65;7.38;;;563.70;2432.00;;;;;;5072390;28;20028;-71
2023/06/27 02:14:50;;;;;;;13.90;7.28;;;563.70;2432.00;;;;;;5071732;28;20496;-74
2023/06/27 02:17:16;;;;;;;12.63;7.10;;;563.60;2432.00;;;;;;5073166;28;20025;-72
2023/06/27 02:19:41;;;;;;;17.40;8.13;;;563.60;2432.00;;;;;;5075359;28;20091;-72
2023/06/27 02:22:07;;;;;;;14.80;7.03;;;563.60;2432.00;;;;;;5075410;28;20051;-71
2023/06/27 02:24:33;;;;;;;13.60;6.85;;;563.60;2432.00;;;;;;5075073;28;20025;-72
2023/06/27 02:26:58;;;;;;;9.43;6.55;;;563.50;2432.00;;;;;;5075970;28;20039;-74
2023/06/27 02:29:24;;;;;;;12.13;6.28;;;563.40;2432.00;;;;;;5075237;28;20055;-82
2023/06/27 02:31:50;;;;;;;9.52;6.78;;;563.50;2432.00;;;;;;5075461;28;20021;-72
2023/06/27 02:34:15;;;;;;;14.00;6.90;;;563.40;2432.00;;;;;;5075011;28;20360;-72
2023/06/27 02:36:41;;;;;;;13.70;6.88;;;563.30;2432.00;;;;;;5075488;28;20024;-75
2023/06/27 02:39:07;;;;;;;14.57;7.28;;;563.30;2432.00;;;;;;5075412;28;20033;-72
2023/06/27 02:41:33;;;;;;;13.68;7.40;;;563.20;2432.00;;;;;;5075298;28;20470;-73
2023/06/27 02:43:58;;;;;;;10.80;7.28;;;563.20;2432.00;;;;;;5074941;28;20024;-72
2023/06/27 02:46:24;;;;;;;14.35;7.40;;;563.20;2432.00;;;;;;5075380;28;20028;-71
2023/06/27 02:48:49;;;;;;;14.75;7.22;;;538.50;2406.40;;;;;;5075280;28;20474;-72
2023/06/27 02:51:15;;;;;;;15.23;8.30;;;538.50;2406.40;;;;;;5074943;28;20067;-72
2023/06/27 02:53:41;;;;;;;14.95;6.93;;;538.50;2406.40;;;;;;5074442;28;20031;-71
2023/06/27 02:56:07;;;;;;;14.65;7.63;;;563.20;2432.00;;;;;;5074828;28;20560;-75
2023/06/27 02:58:33;;;;;;;13.65;7.38;;;563.20;2432.00;;;;;;5072120;28;20107;-72
2023/06/27 03:01:00;;;;;;;12.23;7.03;;;563.20;2432.00;;;;;;5074629;28;20071;-76
2023/06/27 03:03:26;;;;;;;14.02;7.30;;;563.30;2432.00;;;;;;5073009;28;20098;-72
2023/06/27 03:05:52;;;;;;;15.43;7.03;;;563.30;2432.00;;;;;;5074813;28;20016;-82
2023/06/27 03:08:17;;;;;;;12.10;7.55;;;563.30;2432.00;;;;;;5074430;28;20028;-72
2023/06/27 03:10:43;;;;;;;11.48;6.55;;;563.20;2432.00;;;;;;5074726;28;20126;-72
2023/06/27 03:13:09;;;;;;;12.90;7.60;;;563.30;2432.00;;;;;;5074790;28;20032;-80
2023/06/27 03:15:35;;;;;;;12.10;7.30;;;563.30;2432.00;;;;;;5074512;28;20497;-71
2023/06/27 03:18:00;;;;;;;9.82;6.50;;;563.40;2432.00;;;;;;5075025;28;20029;-75
2023/06/27 03:20:26;;;;;;;13.20;6.65;;;563.40;2432.00;;;;;;5074757;28;20028;-72
2023/06/27 03:22:52;;;;;;;13.45;7.03;;;563.40;2432.00;;;;;;5074206;28;20082;-73
2023/06/27 03:25:18;;;;;;;12.20;6.85;;;563.50;2432.00;;;;;;5074701;28;20557;-73
2023/06/27 03:27:44;;;;;;;10.23;6.82;;;563.50;2432.00;;;;;;5074655;28;20033;-72
2023/06/27 03:30:10;;;;;;;17.75;6.68;;;563.50;2432.00;;;;;;5073767;28;20064;-72
2023/06/27 03:32:36;;;;;;;12.95;7.30;;;563.50;2432.00;;;;;;5074522;28;20031;-81
2023/06/27 03:35:01;;;;;;;13.07;6.80;;;563.40;2432.00;;;;;;5074235;28;20108;-81
2023/06/27 03:37:27;;;;;;;15.00;6.78;;;563.50;2432.00;;;;;;5074174;28;20078;-72
2023/06/27 03:39:53;;;;;;;12.48;6.65;;;563.50;2432.00;;;;;;5073888;28;20020;-76
2023/06/27 03:42:19;;;;;;;16.42;7.05;;;563.50;2432.00;;;;;;5073911;28;20037;-73
2023/06/27 03:44:44;;;;;;;12.05;7.60;;;563.50;2432.00;;;;;;5074439;28;20351;-81
2023/06/27 03:47:10;;;;;;;13.85;7.38;;;563.40;2432.00;;;;;;5073661;28;20027;-73
2023/06/27 03:49:36;;;;;;;13.45;6.93;;;563.40;2432.00;;;;;;5074179;28;20024;-72
2023/06/27 03:52:02;;;;;;;14.27;7.30;;;563.40;2432.00;;;;;;5074170;28;20385;-72
2023/06/27 03:54:27;;;;;;;16.17;7.97;;;563.30;2432.00;;;;;;5073513;28;20028;-82
2023/06/27 03:56:53;;;;;;;13.45;8.32;;;563.30;2432.00;;;;;;5073627;28;20032;-72
2023/06/27 03:59:20;;;;;;;15.88;8.48;;;563.40;2432.00;;;;;;5073652;28;20033;-72
2023/06/27 04:01:46;;;;;;;12.52;7.88;;;563.40;2432.00;;;;;;5073549;28;20023;-72
2023/06/27 04:04:12;;;;;;;11.75;7.78;;;563.40;2432.00;;;;;;5073965;28;20381;-72
2023/06/27 04:06:38;;;;;;;14.30;7.97;;;563.40;2432.00;;;;;;5073752;28;20025;-71
2023/06/27 04:09:03;;;;;;;11.00;7.20;;;563.30;2432.00;;;;;;5073429;28;20029;-72
2023/06/27 04:11:31;;;;;;;19.25;8.68;;;563.30;2432.00;;;;;;5073560;28;20020;-72
2023/06/27 04:13:58;;;;;;;15.20;7.95;;;563.40;2432.00;;;;;;5073523;28;20530;-73
2023/06/27 04:16:25;;;;;;;11.88;7.13;;;563.40;2432.00;;;;;;5073507;28;20089;-80
2023/06/27 04:18:50;;;;;;;14.98;7.53;;;563.40;2432.00;;;;;;5073774;28;20081;-71
2023/06/27 04:21:17;;;;;;;10.43;6.68;;;563.40;2432.00;;;;;;5073492;28;20024;-72
2023/06/27 04:23:43;;;;;;;15.27;7.53;;;563.50;2432.00;;;;;;5072863;28;20013;-72
2023/06/27 04:26:14;;;;;;;11.48;7.40;;;563.50;2432.00;;;;;;5072951;28;20604;-72
2023/06/27 04:28:43;;;;;;;12.63;8.30;;;563.50;2432.00;;;;;;5073122;28;20044;-76
2023/06/27 04:31:09;;;;;;;11.27;7.38;;;563.60;2432.00;;;;;;5073443;28;20030;-72
2023/06/27 04:33:39;;;;;;;12.35;6.75;;;563.60;2432.00;;;;;;5073018;28;20104;-73
2023/06/27 04:36:05;;;;;;;14.55;7.50;;;563.60;2432.00;;;;;;5073169;28;20070;-80
2023/06/27 04:38:37;;;;;;;16.48;7.40;;;563.60;2432.00;;;;;;5073048;28;20025;-71
2023/06/27 04:41:07;;;;;;;9.93;7.00;;;563.90;2432.00;;;;;;5071930;28;20040;-77
2023/06/27 04:43:32;;;;;;;20.20;6.75;;;563.70;2432.00;;;;;;5072942;28;20020;-71
2023/06/27 04:45:59;;;;;;;13.20;6.68;;;563.70;2432.00;;;;;;5074489;28;20029;-75
2023/06/27 04:48:28;;;;;;;11.32;6.68;;;563.80;2432.00;;;;;;5078068;28;20036;-75
2023/06/27 04:50:56;;;;;;;15.02;7.57;;;563.90;2432.00;;;;;;5077376;28;20027;-73
2023/06/27 04:53:22;;;;;;;11.63;6.82;;;563.90;2432.00;;;;;;5081991;28;20021;-72
2023/06/27 04:55:49;;;;;;;13.15;6.85;;;564.00;2432.00;;;;;;5075634;28;20068;-75
2023/06/27 04:58:15;;;;;;;11.98;7.30;;;564.00;2432.00;;;;;;5076461;28;20123;-71
2023/06/27 05:00:41;;;;;;;12.77;7.28;;;564.00;2432.00;;;;;;5075325;28;20017;-73
2023/06/27 05:03:07;;;;;;;10.52;6.63;;;588.80;2432.00;;;;;;5082123;28;20036;-71
2023/06/27 05:05:34;;;;;;;9.60;6.95;;;588.80;2432.00;;;;;;5078284;28;20469;-72
2023/06/27 05:08:06;;;;;;;12.57;6.63;;;588.90;2432.00;;;;;;5074001;28;20056;-70
2023/06/27 05:10:33;;;;;;;9.98;6.95;;;588.90;2432.00;;;;;;5074535;28;20048;-72
2023/06/27 05:12:59;;;;;;;15.60;6.80;;;589.00;2432.00;;;;;;5075502;28;20390;-71
2023/06/27 05:15:26;;;;;;;9.60;6.63;;;589.10;2432.00;;;;;;5074487;28;20025;-70
2023/06/27 05:17:53;;;;;;;11.05;7.32;;;589.10;2432.00;;;;;;5078084;28;20024;-70
2023/06/27 05:20:19;;;;;;;10.40;7.32;;;589.20;2432.00;;;;;;5076652;28;20486;-72
2023/06/27 05:22:45;;;;;;;9.20;6.63;;;589.20;2432.00;;;;;;5082200;28;20464;-70
2023/06/27 05:25:11;;;;;;;10.70;6.93;;;589.30;2432.00;;;;;;5075283;28;20174;-72
2023/06/27 05:27:37;;;;;;;11.10;7.07;;;589.30;2432.00;;;;;;5082724;28;20068;-76
2023/06/27 05:30:03;;;;;;;13.45;6.55;;;589.40;2432.00;;;;;;5074205;28;20390;-73
2023/06/27 05:32:29;;;;;;;12.18;6.57;;;589.50;2432.00;;;;;;5076132;28;20524;-73
2023/06/27 05:34:55;;;;;;;11.85;6.78;;;589.60;2432.00;;;;;;5079841;28;20109;-71
2023/06/27 05:37:20;;;;;;;11.93;7.53;;;589.70;2432.00;;;;;;5082764;28;20482;-72
2023/06/27 05:39:46;;;;;;;15.70;7.10;;;589.70;2432.00;;;;;;5075457;28;20100;-71
2023/06/27 05:42:12;;;;;;;10.80;6.85;;;614.40;2432.00;;;;;;5082662;28;20029;-74
2023/06/27 05:44:37;;;;;;;11.93;6.53;;;614.50;2432.00;;;;;;5080868;28;20040;-71
2023/06/27 05:47:03;;;;;;;10.80;6.70;;;614.60;2432.00;;;;;;5077056;28;20505;-71
2023/06/27 05:49:29;;;;;;;11.10;6.15;;;614.70;2432.00;;;;;;5072555;28;20111;-70
2023/06/27 05:51:55;;;;;;;14.18;6.70;;;614.80;2432.00;;;;;;5082477;28;20028;-72
2023/06/27 05:54:20;;;;;;;10.32;6.22;;;614.90;2432.00;;;;;;5078560;28;20037;-71
2023/06/27 05:56:46;;;;;;;8.77;5.68;;;614.90;2432.00;;;;;;5084271;28;20043;-71
2023/06/27 05:59:12;;;;;;;8.68;6.32;;;615.00;2432.00;;;;;;5084091;28;20033;-71
2023/06/27 06:01:37;;;;;;;10.10;5.88;;;615.10;2432.00;;;;;;5087714;28;20028;-72
2023/06/27 06:04:04;;;;;;;9.02;5.70;;;615.20;2432.00;;;;;;5083762;28;20096;-70
2023/06/27 06:06:33;;;;;;;11.73;7.43;;;615.20;2432.00;;;;;;5082798;28;20016;-71
2023/06/27 06:09:00;;;;;;;9.10;5.70;;;615.20;2432.00;;;;;;5090482;28;20213;-71
2023/06/27 06:11:26;;;;;;;9.93;5.55;;;615.30;2432.00;;;;;;5079605;28;20074;-71
2023/06/27 06:13:52;;;;;;;8.15;5.13;;;640.00;2432.00;;;;;;5081007;28;20115;-70
2023/06/27 06:16:18;;;;;;;10.00;7.15;;;640.10;2432.00;;;;;;5078396;28;20163;-73
2023/06/27 06:18:43;;;;;;;11.43;7.00;;;640.20;2432.00;;;;;;5086927;28;20043;-72
2023/06/27 06:21:12;;;;;;;8.32;5.85;;;640.20;2432.00;;;;;;5087415;28;20110;-71
2023/06/27 06:23:38;;;;;;;12.45;5.72;;;640.30;2432.00;;;;;;5084545;28;20028;-71
2023/06/27 06:26:04;;;;;;;7.47;5.40;;;640.50;2432.00;;;;;;5082050;28;20453;-71
2023/06/27 06:28:29;;;;;;;9.57;5.45;;;640.40;2432.00;;;;;;5078597;28;20040;-71
2023/06/27 06:30:55;;;;;;;11.15;4.75;;;640.60;2329.60;;;;;;5090367;28;20073;-77
2023/06/27 06:33:22;;;;;;;8.63;5.35;;;640.70;2278.40;;;;;;5080828;28;20460;-71
2023/06/27 06:35:48;;;;;;;11.45;5.28;;;640.80;2201.60;;;;;;5079694;28;20031;-71
2023/06/27 06:38:13;;;;;;;8.18;5.13;;;640.90;2176.00;;;;;;5081133;28;20103;-71
2023/06/27 06:40:39;;;;;;;12.02;5.43;;;665.60;2176.00;;;;;;5082013;28;20138;-71
2023/06/27 06:43:05;;;;;;;7.05;5.13;;;665.70;2252.80;;;;;;5080389;28;20078;-72
2023/06/27 06:45:30;;;;;;;9.52;5.53;;;665.80;2150.40;;;;;;5076752;28;20029;-70
2023/06/27 06:47:56;;;;;;;7.43;5.57;;;665.90;2150.40;;;;;;5084177;28;20082;-81
2023/06/27 06:50:22;;;;;;;6.55;5.35;;;665.90;2124.80;;;;;;5081479;28;20023;-83
2023/06/27 06:52:47;;;;;;;11.15;5.40;;;666.00;2176.00;;;;;;5083397;28;20025;-83
2023/06/27 06:55:13;;;;;;;8.40;5.88;;;666.20;2073.60;;;;;;5078981;28;20557;-70
2023/06/27 06:57:39;;;;;;;10.90;6.88;;;666.30;2124.80;;;;;;5080523;28;20486;-71
2023/06/27 07:00:05;;;;;;;17.52;6.68;;;666.30;2124.80;;;;;;5080639;28;20024;-73
2023/06/27 07:02:31;;;;;;;9.00;6.22;;;666.40;2073.60;;;;;;5077537;28;20122;-71
2023/06/27 07:04:56;;;;;;;10.18;6.22;;;691.20;2048.00;;;;;;5082255;28;20025;-71
2023/06/27 07:07:23;;;;;;;8.55;5.05;;;691.20;2022.40;;;;;;5079961;28;20043;-73
2023/06/27 07:09:49;;;;;;;9.98;5.55;;;691.30;1971.20;;;;;;5080570;28;20044;-73
2023/06/27 07:12:14;;;;;;;9.20;5.47;;;691.30;2022.40;;;;;;5080829;28;20482;-78
2023/06/27 07:14:40;;;;;;;8.60;5.32;;;691.40;2022.40;;;;;;5079695;28;20082;-71
2023/06/27 07:17:06;;;;;;;24.52;7.13;;;691.60;1996.80;;;;;;5078637;28;20044;-71
2023/06/27 07:19:31;;;;;;;6.57;4.78;;;691.60;2048.00;;;;;;5081367;28;20028;-71
2023/06/27 07:21:57;;;;;;;7.22;5.38;;;691.80;1971.20;;;;;;5077503;28;20368;-70
2023/06/27 07:24:23;;;;;;;8.30;5.38;;;691.80;1971.20;;;;;;5079888;28;20378;-75
2023/06/27 07:26:50;;;;;;;14.95;5.85;;;691.90;1971.20;;;;;;5077147;28;20067;-72
2023/06/27 07:29:17;;;;;;;9.90;5.05;;;692.00;1945.60;;;;;;5077684;28;20033;-70
2023/06/27 07:31:43;;;;;;;8.63;5.40;;;692.10;1894.40;;;;;;5079830;28;20024;-70
2023/06/27 07:34:08;;;;;;;8.50;5.57;;;716.80;1971.20;;;;;;5076912;28;20029;-71
2023/06/27 07:36:35;;;;;;;10.02;5.40;;;716.90;1971.20;;;;;;5077970;28;20020;-71
2023/06/27 07:39:01;;;;;;;10.82;5.80;;;716.90;1920.00;;;;;;5077698;28;20027;-72
2023/06/27 07:41:28;;;;;;;12.18;6.30;;;716.90;1945.60;;;;;;5081561;28;20032;-71
2023/06/27 07:43:54;;;;;;;8.50;5.63;;;717.10;1971.20;;;;;;5080892;28;20025;-70
2023/06/27 07:46:20;;;;;;;11.50;6.13;;;717.20;1894.40;;;;;;5077004;28;20371;-73
2023/06/27 07:48:45;;;;;;;8.65;5.35;;;717.30;1843.20;;;;;;5084094;28;20487;-73
2023/06/27 07:51:11;;;;;;;12.45;5.55;;;717.40;1868.80;;;;;;5076174;28;20018;-73
2023/06/27 07:53:37;;;;;;;11.43;5.13;;;717.40;1817.60;;;;;;5079352;28;20031;-71
2023/06/27 07:56:02;;;;;;;10.48;5.25;;;717.40;1843.20;;;;;;5076412;28;20401;-78
2023/06/27 07:58:28;;;;;;;8.63;5.47;;;717.50;1843.20;;;;;;5080559;28;20024;-71
2023/06/27 08:00:54;;;;;;;11.05;5.25;;;717.60;1843.20;;;;;;5077238;28;20458;-71
2023/06/27 08:03:20;;;;;;;7.95;5.18;;;717.70;1843.20;;;;;;5081728;28;20101;-76
2023/06/27 08:05:46;;;;;;;7.78;4.72;;;717.70;1766.40;;;;;;5082202;28;20035;-71
2023/06/27 08:08:11;;;;;;;7.63;5.68;;;742.40;1766.40;;;;;;5079289;28;20040;-76
2023/06/27 08:10:37;;;;;;;7.85;5.25;;;742.40;1740.80;;;;;;5082324;28;20028;-72
2023/06/27 08:13:03;;;;;;;9.68;4.95;;;742.50;1715.20;;;;;;5081767;28;20521;-72
2023/06/27 08:15:28;;;;;;;9.93;4.88;;;742.50;1664.00;;;;;;5076516;28;20021;-76
2023/06/27 08:17:54;;;;;;;8.82;5.22;;;742.50;1664.00;;;;;;5075868;28;20028;-78
2023/06/27 08:20:20;;;;;;;7.15;5.10;;;742.50;1638.40;;;;;;5086164;28;20027;-72
2023/06/27 08:22:45;;;;;;;6.82;4.70;;;742.50;1638.40;;;;;;5057155;28;20063;-74
2023/06/27 08:25:11;;;;;;;7.43;5.05;;;742.60;1664.00;;;;;;5082693;28;20028;-73
2023/06/27 08:27:37;;;;;;;13.55;4.95;;;742.70;1689.60;;;;;;5080446;28;20048;-73
2023/06/27 08:30:03;;;;;;;9.13;5.03;;;742.60;1689.60;;;;;;5084805;28;20359;-72
2023/06/27 08:32:29;;;;;;;11.85;5.85;;;742.80;1689.60;;;;;;5080327;28;20153;-73
2023/06/27 08:34:54;;;;;;;9.60;5.68;;;742.80;1740.80;;;;;;5075714;28;20103;-71
2023/06/27 08:37:21;;;;;;;7.57;5.15;;;742.90;1715.20;;;;;;5081273;28;20024;-75
2023/06/27 08:39:51;;;;;;;8.15;5.22;;;742.90;1664.00;;;;;;5077605;28;20021;-71
2023/06/27 08:42:18;;;;;;;9.18;5.63;;;742.90;1638.40;;;;;;5077313;28;20032;-71
2023/06/27 08:44:43;;;;;;;9.45;5.45;;;742.90;1638.40;;;;;;5073417;28;20016;-71
2023/06/27 08:47:11;;;;;;;8.35;5.75;;;742.90;1612.80;;;;;;5078581;28;20032;-73
2023/06/27 08:49:39;;;;;;;12.93;5.75;;;743.00;1638.40;;;;;;5075709;28;20474;-72
2023/06/27 08:52:11;;;;;;;9.27;6.00;;;743.00;1587.20;;;;;;5070685;28;20071;-71
2023/06/27 08:54:45;;;;;;;12.95;6.22;;;743.10;1638.40;;;;;;5075447;28;20371;-72
2023/06/27 08:57:11;;;;;;;10.45;5.65;;;743.20;1664.00;;;;;;5076308;28;20048;-72
2023/06/27 08:59:37;;;;;;;7.22;5.43;;;743.20;1587.20;;;;;;5077961;28;20033;-70
2023/06/27 09:02:05;;;;;;;8.32;5.30;;;743.20;1612.80;;;;;;5075630;28;20422;-71
2023/06/27 09:04:35;;;;;;;7.45;5.00;;;768.00;1561.60;;;;;;5079970;28;20474;-75
2023/06/27 09:07:03;;;;;;;27.08;5.93;;;768.10;1536.00;;;;;;5074033;28;20024;-71
2023/06/27 09:09:30;;;;;;;11.75;5.65;;;768.10;1561.60;;;;;;5085581;28;20540;-71
2023/06/27 09:12:00;;;;;;;9.35;5.32;;;768.10;1510.40;;;;;;5078168;28;20050;-70
2023/06/27 09:14:26;;;;;;;8.68;5.00;;;768.10;1536.00;;;;;;5075863;28;20479;-71
2023/06/27 09:16:52;;;;;;;8.02;5.43;;;768.10;1484.80;;;;;;5079520;28;20021;-72
2023/06/27 09:19:19;;;;;;;7.43;5.28;;;768.20;1510.40;;;;;;5076269;28;20526;-71
2023/06/27 09:21:47;;;;;;;10.90;6.07;;;768.30;1510.40;;;;;;5077833;28;20021;-75
2023/06/27 09:24:14;;;;;;;11.38;4.88;;;768.30;1484.80;;;;;;5074004;28;20028;-71
2023/06/27 09:26:40;;;;;;;6.15;4.57;;;768.30;1408.00;;;;;;5083384;28;20069;-71
2023/06/27 09:29:06;;;;;;;8.40;5.07;;;768.40;1408.00;;;;;;5087980;28;20490;-72
2023/06/27 09:31:33;;;;;;;8.95;5.63;;;768.50;1408.00;;;;;;5083758;28;20023;-70
2023/06/27 09:34:09;;;;;;;7.10;5.00;;;768.60;1408.00;;;;;;5083702;28;20379;-71
2023/06/27 09:36:38;;;;;;;8.98;5.13;;;768.60;1356.80;;;;;;5076326;28;20130;-71
2023/06/27 09:39:06;;;;;;;8.98;5.20;;;768.60;1356.80;;;;;;5087918;28;20081;-71
2023/06/27 09:41:47;;;;;;;8.52;5.45;;;768.70;1433.60;;;;;;5083871;28;20109;-76
2023/06/27 09:44:16;;;;;;;10.18;5.20;;;768.80;1356.80;;;;;;5078420;28;20069;-72
2023/06/27 09:46:43;;;;;;;6.43;4.78;;;768.90;1356.80;;;;;;5083228;28;20028;-72
2023/06/27 09:49:09;;;;;;;7.93;4.80;;;793.60;1331.20;;;;;;5080893;28;20162;-78
2023/06/27 09:51:36;;;;;;;7.93;5.03;;;793.70;1356.80;;;;;;5079659;28;20420;-71
2023/06/27 09:54:02;;;;;;;8.73;4.90;;;793.70;1356.80;;;;;;5079331;28;20028;-73
2023/06/27 09:56:32;;;;;;;8.15;5.45;;;793.70;1356.80;;;;;;5066034;28;20409;-76
2023/06/27 09:59:10;;;;;;;9.48;5.00;;;793.90;1382.40;;;;;;5082371;28;20048;-72
2023/06/27 10:01:37;;;;;;;6.60;4.80;;;794.10;1356.80;;;;;;5073002;28;20028;-73
2023/06/27 10:04:04;;;;;;;7.93;4.65;;;794.20;1382.40;;;;;;5080643;28;20032;-72
2023/06/27 10:06:30;;;;;;;7.95;5.07;;;794.30;1356.80;;;;;;5079163;28;20056;-72
2023/06/27 10:08:57;;;;;;;11.27;5.95;;;819.20;1382.40;;;;;;5079453;28;20436;-72
2023/06/27 10:11:24;;;;;;;7.18;4.70;;;819.30;1331.20;;;;;;5084097;28;20025;-73
2023/06/27 10:13:51;;;;;;;7.10;5.20;;;819.30;1331.20;;;;;;5078650;28;20028;-72
2023/06/27 10:16:20;;;;;;;8.18;5.63;;;819.40;1280.00;;;;;;5080839;28;20532;-76
2023/06/27 10:18:49;;;;;;;7.95;5.15;;;819.40;1305.60;;;;;;5076004;28;20368;-73
2023/06/27 10:21:16;;;;;;;8.82;5.30;;;819.30;1331.20;;;;;;5081198;28;20561;-72
2023/06/27 10:23:46;;;;;;;8.57;5.30;;;819.50;1280.00;;;;;;5085208;28;20119;-72
2023/06/27 10:26:12;;;;;;;9.35;5.53;;;819.40;1305.60;;;;;;5079861;28;20387;-74
2023/06/27 10:28:38;;;;;;;6.25;5.13;;;819.30;1331.20;;;;;;5083887;28;20039;-72
2023/06/27 10:31:04;;;;;;;7.97;5.43;;;819.50;1331.20;;;;;;5083921;28;20473;-73
2023/06/27 10:33:32;;;;;;;12.55;5.55;;;819.60;1331.20;;;;;;5079877;28;20382;-71
2023/06/27 10:36:05;;;;;;;11.68;5.57;;;819.80;1280.00;;;;;;5085000;28;20024;-72
2023/06/27 10:38:39;;;;;;;6.78;4.72;;;820.00;1331.20;;;;;;5082972;28;20020;-72
2023/06/27 10:41:09;;;;;;;7.00;4.90;;;820.10;1280.00;;;;;;5078023;28;20478;-79
2023/06/27 10:44:07;;;;;;;10.90;5.15;;;819.90;1280.00;;;;;;5076440;28;20025;-72
2023/06/27 10:46:33;;;;;;;6.00;4.25;;;820.10;1203.20;;;;;;5078890;28;20025;-72
2023/06/27 10:49:04;;;;;;;9.70;4.95;;;844.90;1228.80;;;;;;5079516;28;20462;-73
2023/06/27 10:51:41;;;;;;;6.93;4.72;;;845.00;1280.00;;;;;;5070897;28;20112;-72
2023/06/27 10:54:12;;;;;;;8.05;4.05;;;845.20;1177.60;;;;;;5071778;28;20024;-72
2023/06/27 10:56:39;;;;;;;9.80;5.28;;;845.30;1177.60;;;;;;5082231;28;20100;-71
2023/06/27 10:59:19;;;;;;;8.90;4.38;;;845.30;1228.80;;;;;;5086301;28;20027;-72
2023/06/27 11:01:51;;;;;;;6.22;4.43;;;845.40;1254.40;;;;;;5073280;28;20466;-72
2023/06/27 11:04:25;;;;;;;5.40;4.15;;;845.40;1177.60;;;;;;5076556;28;20046;-72
2023/06/27 11:06:58;;;;;;;6.75;4.75;;;845.40;1203.20;;;;;;5076191;28;20035;-72
2023/06/27 11:09:24;;;;;;;11.55;5.55;;;845.40;1203.20;;;;;;5082393;28;20603;-71
2023/06/27 11:12:07;;;;;;;328.90;232.75;;;845.50;1203.20;;;;;;5081970;28;20107;-72
2023/06/27 11:14:37;;;;;;;37.65;25.98;;;845.60;1177.60;;;;;;5086085;28;20146;-71
2023/06/27 11:17:04;;;;;;;28.23;15.50;;;845.70;1228.80;;;;;;5077681;28;20099;-79
2023/06/27 11:19:34;;;;;;;569.25;433.23;;;845.70;1203.20;;;;;;5078920;28;20016;-71
2023/06/27 11:22:03;;;;;;;94.10;69.25;;;845.50;1228.80;;;;;;5082337;28;20035;-72
2023/06/27 11:24:29;;;;;;;19.83;13.52;;;845.30;1177.60;;;;;;5086128;28;20541;-71
2023/06/27 11:26:56;;;;;;;17.05;10.13;;;820.10;1228.80;;;;;;5078845;28;20033;-71
2023/06/27 11:29:25;;;;;;;11.63;5.80;;;819.90;1280.00;;;;;;5082507;28;20105;-71
2023/06/27 11:31:53;;;;;;;45.08;28.38;;;819.80;1254.40;;;;;;5085049;28;20024;-71
2023/06/27 11:34:19;;;;;;;94.43;61.40;;;819.80;1254.40;;;;;;5076869;28;20020;-72
2023/06/27 11:36:45;;;;;;;123.25;73.43;;;819.80;1305.60;;;;;;5077279;28;20032;-71
2023/06/27 11:39:11;;;;;;;18.85;13.07;;;819.60;1305.60;;;;;;5081862;28;20031;-72
2023/06/27 11:41:41;;;;;;;113.90;60.05;;;819.50;1254.40;;;;;;5076653;28;20028;-70
2023/06/27 11:44:11;;;;;;;21.13;13.55;;;819.90;1254.40;;;;;;5075279;28;20067;-70
2023/06/27 11:46:54;;;;;;;22.77;14.82;;;844.90;1254.40;;;;;;5083062;28;20020;-71
2023/06/27 11:49:24;;;;;;;40.47;27.05;;;845.10;1280.00;;;;;;5077817;28;20532;-70
2023/06/27 11:51:51;;;;;;;152.00;76.70;;;845.10;1280.00;;;;;;5074411;28;20036;-70
2023/06/27 11:54:18;;;;;;;74.93;43.83;;;844.90;1305.60;;;;;;5076790;28;20025;-70
2023/06/27 11:56:44;;;;;;;25.02;12.18;;;819.60;1408.00;;;;;;5080433;28;20039;-69
2023/06/27 11:59:10;;;;;;;23.58;7.65;;;794.20;1536.00;;;;;;5078730;28;20390;-71
2023/06/27 12:01:44;;;;;;;20.73;10.13;;;793.70;1638.40;;;;;;5076588;28;20025;-72
2023/06/27 12:04:17;;;;;;;10.13;7.40;;;768.40;1689.60;;;;;;5071131;28;20104;-71
2023/06/27 12:06:44;;;;;;;13.07;7.88;;;743.20;1740.80;;;;;;5077588;28;20074;-71
2023/06/27 12:09:24;;;;;;;12.38;6.93;;;742.90;1817.60;;;;;;5078070;28;20036;-72
2023/06/27 12:11:58;;;;;;;11.82;7.40;;;742.60;1894.40;;;;;;5082197;28;20158;-72